Decoded Metar for RJTY (YOKOTA in JAPAN) (IATA:OKO) | Meteo·Mobile Aviation Weather
aviador You're here:

RJTY Decoded Metar

YOKOTA in JAPAN
Report Time2019-05-22 06:56:00
UTC Time2019-05-22 07:14:23
Flight Rules vfr VFR
Wind160° at 07 kt
W.Decomp.*RWY 18: 6.8 kt HW 1.7 kt LCW
Visibility9999 m
Phenomena:N/A
Clouds:Few 210 Hf
Expected CloudBase > 6,400 ft AGL from Temp-Dew spread
CeilingNone
Temp23°C (ISA +9)
Dew Point07°C (36% RH)
AAT19.8°C
QNH1006 hPa
Density Alt1,864 ft
Elevation456 ft
Report Wrong Elevation
Raw Report
RJTY 220656Z 16007KT 10SM FEW210 23/07 A2972 RMK AO2A SLPNO ALSTG
ESTMD FZRANO $=

Extra information for RJTY:More info

Metar Taf Metar & Taf Last 4 Metars F.Rules Stats Wind Profile Meteogram Temp Stats Airport Information Weather charts Add Link Nearby VenuesMetar ALERT Operation Metar Decoded Social comments